Time;durP1;ratioP1;P1;durP2;ratioP2;P2;SDS_P1;SDS_P2;PMS_P1;PMS_P2;Temp;Humidity;BMP_temperature;BMP_pressure;BME280_temperature;BME280_humidity;BME280_pressure;Samples;Min_cycle;Max_cycle;Signal;HPM_P1;HPM_P2
2021/03/13 00:01:02;;;;;;;7.90;2.85;;;6.60;52.50;;;;;;5032741;28;20045;-77
2021/03/13 00:03:28;;;;;;;9.90;3.20;;;6.60;52.60;;;;;;5032839;28;20025;-77
2021/03/13 00:05:54;;;;;;;6.45;3.28;;;6.60;52.80;;;;;;5033030;28;20559;-76
2021/03/13 00:08:20;;;;;;;6.00;2.47;;;6.50;52.70;;;;;;5030509;28;20437;-77
2021/03/13 00:10:47;;;;;;;6.10;2.42;;;6.50;52.70;;;;;;5032191;28;20079;-77
2021/03/13 00:13:13;;;;;;;5.40;2.60;;;6.50;52.50;;;;;;5032108;28;20021;-76
2021/03/13 00:15:40;;;;;;;5.90;2.47;;;6.50;52.50;;;;;;5032912;28;20025;-77
2021/03/13 00:18:07;;;;;;;5.55;2.42;;;6.40;52.50;;;;;;5020250;28;20540;-77
2021/03/13 00:20:35;;;;;;;7.18;2.17;;;6.40;52.60;;;;;;4995527;28;20026;-77
2021/03/13 00:23:01;;;;;;;5.68;2.20;;;6.40;52.70;;;;;;5013154;28;20076;-77
2021/03/13 00:25:29;;;;;;;6.93;2.67;;;6.40;52.60;;;;;;5012943;28;20022;-77
2021/03/13 00:27:56;;;;;;;7.28;2.00;;;6.40;52.70;;;;;;5012909;28;20076;-77
2021/03/13 00:30:24;;;;;;;6.25;2.47;;;6.40;52.90;;;;;;4995429;28;20029;-77
2021/03/13 00:32:53;;;;;;;6.32;2.40;;;6.30;52.90;;;;;;4995206;28;20105;-77
2021/03/13 00:35:20;;;;;;;7.55;2.70;;;6.30;52.90;;;;;;5012921;28;20080;-77
2021/03/13 00:37:47;;;;;;;7.18;2.85;;;6.30;52.80;;;;;;5013062;28;20018;-76
2021/03/13 00:40:15;;;;;;;4.13;2.30;;;6.30;53.00;;;;;;5013992;28;20033;-77
2021/03/13 00:42:42;;;;;;;3.75;2.30;;;6.30;53.10;;;;;;5016881;28;20499;-77
2021/03/13 00:45:11;;;;;;;5.40;2.60;;;6.30;53.40;;;;;;5016764;28;20068;-77
2021/03/13 00:47:36;;;;;;;5.38;2.05;;;6.30;53.40;;;;;;5016707;28;20030;-77
2021/03/13 00:50:04;;;;;;;6.25;2.70;;;6.30;53.30;;;;;;5032949;28;20036;-77
2021/03/13 00:52:30;;;;;;;8.45;2.10;;;6.30;53.40;;;;;;5036422;28;20029;-77
2021/03/13 00:54:55;;;;;;;6.15;2.92;;;6.30;53.30;;;;;;5036298;28;20021;-77
2021/03/13 00:57:21;;;;;;;8.73;3.42;;;6.30;53.30;;;;;;5036352;28;20028;-77
2021/03/13 00:59:47;;;;;;;5.57;2.53;;;6.30;53.30;;;;;;5036207;28;20046;-76
2021/03/13 01:02:13;;;;;;;9.35;2.42;;;6.30;53.30;;;;;;5036184;28;20056;-77
2021/03/13 01:04:38;;;;;;;6.05;2.75;;;6.30;53.50;;;;;;5036251;28;20029;-76
2021/03/13 01:07:04;;;;;;;17.10;3.30;;;6.30;53.50;;;;;;5036190;28;20040;-77
2021/03/13 01:09:30;;;;;;;5.53;2.65;;;6.30;53.50;;;;;;5036146;28;20060;-77
2021/03/13 01:11:56;;;;;;;3.67;2.30;;;6.30;53.50;;;;;;5034490;28;20025;-77
2021/03/13 01:14:22;;;;;;;6.10;2.45;;;6.30;53.60;;;;;;5034877;28;20021;-77
2021/03/13 01:16:48;;;;;;;8.30;2.25;;;6.30;53.50;;;;;;5034167;28;20028;-77
2021/03/13 01:19:14;;;;;;;4.75;2.25;;;6.30;53.60;;;;;;5016046;28;20109;-77
2021/03/13 01:21:40;;;;;;;6.07;2.13;;;6.30;53.80;;;;;;5016281;28;20030;-77
2021/03/13 01:24:06;;;;;;;3.45;1.80;;;6.30;54.10;;;;;;5014829;28;20052;-77
2021/03/13 01:26:32;;;;;;;5.05;2.30;;;6.40;54.20;;;;;;5015920;28;20057;-77
2021/03/13 01:28:58;;;;;;;15.93;6.53;;;6.40;54.90;;;;;;5015931;28;20049;-77
2021/03/13 01:31:24;;;;;;;13.38;4.72;;;6.50;54.70;;;;;;5014620;28;20030;-77
2021/03/13 01:33:49;;;;;;;8.48;2.85;;;6.60;54.70;;;;;;5015805;28;20025;-77
2021/03/13 01:36:15;;;;;;;6.15;2.42;;;6.70;54.60;;;;;;5015896;28;20026;-77
2021/03/13 01:38:41;;;;;;;6.03;2.05;;;6.80;54.50;;;;;;5015754;28;20072;-77
2021/03/13 01:41:06;;;;;;;6.00;2.58;;;6.90;54.50;;;;;;5015907;28;20022;-77
2021/03/13 01:43:32;;;;;;;7.40;2.58;;;6.90;54.30;;;;;;5015697;28;20034;-77
2021/03/13 01:45:58;;;;;;;5.25;2.33;;;7.00;54.20;;;;;;5015648;28;20379;-77
2021/03/13 01:48:33;;;;;;;4.20;2.25;;;7.00;54.00;;;;;;5015589;28;20037;-77
2021/03/13 01:51:01;;;;;;;5.13;2.40;;;7.10;54.10;;;;;;5015082;28;20030;-77
2021/03/13 01:53:27;;;;;;;5.88;2.45;;;7.10;54.10;;;;;;5014877;28;20072;-76
2021/03/13 01:55:53;;;;;;;5.18;1.98;;;7.20;54.00;;;;;;5015652;28;20028;-77
2021/03/13 01:58:19;;;;;;;7.90;2.65;;;7.20;54.00;;;;;;5015485;28;20018;-77
2021/03/13 02:00:45;;;;;;;6.93;2.60;;;7.30;54.10;;;;;;4997780;28;20054;-77
2021/03/13 02:03:11;;;;;;;3.25;1.92;;;7.30;54.00;;;;;;5015492;28;20030;-77
2021/03/13 02:05:48;;;;;;;6.80;2.58;;;7.40;54.00;;;;;;5015475;28;20169;-77
2021/03/13 02:08:33;;;;;;;3.72;1.92;;;7.40;54.00;;;;;;5016874;28;20494;-77
2021/03/13 02:11:31;;;;;;;4.43;2.05;;;7.50;54.20;;;;;;5026525;28;20037;-77
2021/03/13 02:14:21;;;;;;;4.40;2.03;;;7.50;54.20;;;;;;5035210;28;20030;-77
2021/03/13 02:16:59;;;;;;;4.78;1.92;;;7.60;54.00;;;;;;5035019;28;20028;-77
2021/03/13 02:20:01;;;;;;;7.88;2.30;;;7.70;53.90;;;;;;5034901;28;20096;-77
2021/03/13 02:22:30;;;;;;;6.47;2.22;;;7.80;53.90;;;;;;5035054;28;20033;-77
2021/03/13 02:25:32;;;;;;;4.30;2.03;;;7.80;53.70;;;;;;5034749;28;20022;-77
2021/03/13 02:28:17;;;;;;;6.95;2.63;;;7.80;53.70;;;;;;5034687;28;20029;-77
2021/03/13 02:30:44;;;;;;;7.70;2.70;;;7.80;53.60;;;;;;5016953;28;20036;-77
2021/03/13 02:33:19;;;;;;;7.18;2.17;;;7.90;53.60;;;;;;5034555;28;20018;-77
2021/03/13 02:35:52;;;;;;;3.95;2.42;;;7.90;53.50;;;;;;5033427;28;20036;-77
2021/03/13 02:38:46;;;;;;;4.03;2.17;;;7.90;53.50;;;;;;5034523;28;20056;-77
2021/03/13 02:41:18;;;;;;;5.18;2.22;;;8.00;53.50;;;;;;5023851;28;20110;-77
2021/03/13 02:43:50;;;;;;;5.25;2.65;;;8.00;53.40;;;;;;5034592;28;20025;-77
2021/03/13 02:46:20;;;;;;;4.97;2.42;;;8.00;53.40;;;;;;5033128;28;20420;-77
2021/03/13 02:48:50;;;;;;;8.15;3.03;;;8.10;53.30;;;;;;5028429;28;20057;-77
2021/03/13 02:51:19;;;;;;;5.03;2.55;;;8.10;53.20;;;;;;5014612;28;20038;-77
2021/03/13 02:53:46;;;;;;;5.82;2.50;;;8.20;53.20;;;;;;5013509;28;20105;-77
2021/03/13 02:56:14;;;;;;;9.02;2.75;;;8.20;53.20;;;;;;5015621;28;20022;-77
2021/03/13 02:58:41;;;;;;;5.10;2.42;;;8.20;53.00;;;;;;5017983;28;20026;-76
2021/03/13 03:01:07;;;;;;;5.88;2.40;;;8.30;53.60;;;;;;5014221;28;20052;-76
2021/03/13 03:03:36;;;;;;;5.65;3.00;;;8.30;53.00;;;;;;5013832;28;20037;-77
2021/03/13 03:06:04;;;;;;;6.68;2.47;;;8.30;53.00;;;;;;5014504;28;20499;-77
2021/03/13 03:08:30;;;;;;;5.15;2.20;;;8.30;52.90;;;;;;5017693;28;20104;-77
2021/03/13 03:10:57;;;;;;;5.55;2.33;;;8.40;52.80;;;;;;5033779;28;20104;-77
2021/03/13 03:13:27;;;;;;;7.38;2.38;;;8.40;52.70;;;;;;5033791;28;20025;-77
2021/03/13 03:15:58;;;;;;;4.95;2.38;;;8.40;52.60;;;;;;5016088;28;20510;-77
2021/03/13 03:18:26;;;;;;;6.15;2.70;;;8.50;52.60;;;;;;5033967;28;20113;-77
2021/03/13 03:20:53;;;;;;;8.48;2.90;;;8.50;52.50;;;;;;5015900;28;20071;-77
2021/03/13 03:23:20;;;;;;;8.05;3.20;;;8.50;52.50;;;;;;5033560;28;20026;-77
2021/03/13 03:25:45;;;;;;;8.63;3.50;;;8.50;52.50;;;;;;5015919;28;20031;-77
2021/03/13 03:28:16;;;;;;;9.20;3.50;;;8.50;52.50;;;;;;5033531;28;20100;-77
2021/03/13 03:30:42;;;;;;;10.68;4.32;;;8.50;52.50;;;;;;5032316;28;20028;-77
2021/03/13 03:33:08;;;;;;;14.48;4.38;;;8.50;52.60;;;;;;5032245;28;20478;-77
2021/03/13 03:35:33;;;;;;;9.85;2.80;;;8.50;52.80;;;;;;5033479;28;20025;-77
2021/03/13 03:38:03;;;;;;;11.27;3.45;;;8.50;52.80;;;;;;5033367;28;20416;-77
2021/03/13 03:40:32;;;;;;;7.85;3.35;;;8.40;52.70;;;;;;5033453;28;20121;-77
2021/03/13 03:43:12;;;;;;;5.68;2.55;;;8.50;52.70;;;;;;5033411;28;20028;-77
2021/03/13 03:45:42;;;;;;;8.55;2.47;;;8.50;52.70;;;;;;5033345;28;20041;-77
2021/03/13 03:48:13;;;;;;;5.70;2.63;;;8.50;53.30;;;;;;5031924;28;20033;-77
2021/03/13 03:50:42;;;;;;;4.43;2.35;;;8.50;52.70;;;;;;5025799;28;20014;-77
2021/03/13 03:53:17;;;;;;;4.05;2.50;;;8.50;52.70;;;;;;5013531;28;20014;-77
2021/03/13 03:55:46;;;;;;;7.15;2.58;;;8.50;52.50;;;;;;5012442;28;20021;-77
2021/03/13 03:58:16;;;;;;;6.60;3.10;;;8.50;52.40;;;;;;5013154;28;20383;-77
2021/03/13 04:00:44;;;;;;;6.05;2.72;;;8.50;52.10;;;;;;5013084;28;20133;-76
2021/03/13 04:03:12;;;;;;;5.38;2.67;;;8.40;52.00;;;;;;5013397;28;20053;-77
2021/03/13 04:05:43;;;;;;;7.40;2.80;;;8.40;51.90;;;;;;5013222;28;20030;-77
2021/03/13 04:08:11;;;;;;;7.57;3.05;;;8.30;51.90;;;;;;5014704;28;20100;-77
2021/03/13 04:10:42;;;;;;;6.18;2.78;;;8.20;51.90;;;;;;5032494;28;20060;-77
2021/03/13 04:13:10;;;;;;;4.35;2.58;;;8.20;52.00;;;;;;5033094;28;20022;-77
2021/03/13 04:15:36;;;;;;;5.93;2.83;;;8.10;52.00;;;;;;5014505;28;20056;-77
2021/03/13 04:18:02;;;;;;;7.43;5.38;;;8.00;52.00;;;;;;5032910;28;20550;-77
2021/03/13 04:20:28;;;;;;;10.23;4.20;;;7.90;52.20;;;;;;5031506;28;20109;-77
2021/03/13 04:22:54;;;;;;;8.27;4.00;;;7.80;52.30;;;;;;5033097;28;20013;-77
2021/03/13 04:25:21;;;;;;;7.57;3.33;;;7.80;52.40;;;;;;5033002;28;20033;-77
2021/03/13 04:27:47;;;;;;;4.82;2.58;;;7.70;52.50;;;;;;5031581;28;20018;-77
2021/03/13 04:30:15;;;;;;;6.28;2.22;;;7.70;52.60;;;;;;5032908;28;20052;-77
2021/03/13 04:32:43;;;;;;;7.25;2.63;;;7.70;52.80;;;;;;5015193;28;20113;-77
2021/03/13 04:35:10;;;;;;;8.68;2.97;;;7.60;53.00;;;;;;5032956;28;20032;-77
2021/03/13 04:37:37;;;;;;;7.07;3.17;;;7.70;53.20;;;;;;5015105;28;20017;-77
2021/03/13 04:40:04;;;;;;;6.10;2.53;;;7.70;53.30;;;;;;5032635;28;20026;-77
2021/03/13 04:42:31;;;;;;;6.22;3.47;;;7.70;53.40;;;;;;5031600;28;20029;-77
2021/03/13 04:44:58;;;;;;;6.15;2.85;;;7.80;53.60;;;;;;5014963;28;20022;-77
2021/03/13 04:47:24;;;;;;;9.85;3.53;;;7.80;53.60;;;;;;5032675;28;20386;-77
2021/03/13 04:49:50;;;;;;;5.00;2.58;;;7.90;53.70;;;;;;5032272;28;20021;-77
2021/03/13 04:52:16;;;;;;;8.00;2.80;;;7.90;53.50;;;;;;5012660;28;20387;-77
2021/03/13 04:54:41;;;;;;;6.70;3.35;;;7.90;53.50;;;;;;5013448;28;20393;-76
2021/03/13 04:57:07;;;;;;;11.35;3.17;;;8.00;53.40;;;;;;5015309;28;20094;-75
2021/03/13 04:59:34;;;;;;;8.25;3.28;;;8.00;53.40;;;;;;5029568;28;20032;-76
2021/03/13 05:02:02;;;;;;;5.65;2.60;;;8.00;53.40;;;;;;5025915;28;20030;-77
2021/03/13 05:04:28;;;;;;;6.40;2.92;;;8.00;53.20;;;;;;5032262;28;20049;-75
2021/03/13 05:06:53;;;;;;;5.63;2.55;;;8.10;53.20;;;;;;5047214;28;20010;-75
2021/03/13 05:09:19;;;;;;;5.68;3.15;;;8.10;53.10;;;;;;5055040;28;20005;-75
2021/03/13 05:11:45;;;;;;;6.80;3.15;;;8.10;53.00;;;;;;5037641;28;20021;-75
2021/03/13 05:14:11;;;;;;;9.40;3.30;;;8.00;52.90;;;;;;5054119;28;20074;-76
2021/03/13 05:16:36;;;;;;;7.53;3.20;;;8.00;52.80;;;;;;5054835;28;20021;-76
2021/03/13 05:19:02;;;;;;;7.68;4.18;;;7.90;52.70;;;;;;5055547;28;20029;-75
2021/03/13 05:21:28;;;;;;;10.30;2.95;;;7.90;52.90;;;;;;5055382;28;20049;-76
2021/03/13 05:23:54;;;;;;;5.63;2.90;;;7.80;52.70;;;;;;5055251;28;20048;-75
2021/03/13 05:26:19;;;;;;;7.22;2.92;;;7.70;52.80;;;;;;5056229;28;20025;-75
2021/03/13 05:28:45;;;;;;;7.22;3.20;;;7.70;52.80;;;;;;5058790;28;20593;-75
2021/03/13 05:31:11;;;;;;;5.20;3.30;;;7.60;52.80;;;;;;5040657;28;20025;-76
2021/03/13 05:33:37;;;;;;;4.75;3.30;;;7.50;52.90;;;;;;5036024;28;20022;-77
2021/03/13 05:36:03;;;;;;;6.43;3.13;;;7.40;53.00;;;;;;5037517;28;20045;-77
2021/03/13 05:38:29;;;;;;;9.77;3.03;;;7.30;53.40;;;;;;5037608;28;20483;-77
2021/03/13 05:40:56;;;;;;;10.85;3.75;;;7.30;53.20;;;;;;5041757;28;20056;-76
2021/03/13 05:43:22;;;;;;;11.23;4.00;;;7.30;53.50;;;;;;5038900;28;20029;-76
2021/03/13 05:45:48;;;;;;;8.25;3.70;;;7.20;53.70;;;;;;5036272;28;20029;-76
2021/03/13 05:48:15;;;;;;;6.82;2.95;;;7.20;53.80;;;;;;5018961;28;20033;-77
2021/03/13 05:50:43;;;;;;;6.40;3.35;;;7.10;53.80;;;;;;5030750;28;20371;-77
2021/03/13 05:53:10;;;;;;;7.60;3.78;;;7.10;53.90;;;;;;5015479;28;20026;-77
2021/03/13 05:55:37;;;;;;;7.68;3.17;;;7.10;54.10;;;;;;5014705;28;20041;-77
2021/03/13 05:58:06;;;;;;;6.95;3.30;;;7.10;54.20;;;;;;5020964;28;20017;-77
2021/03/13 06:00:31;;;;;;;9.20;3.08;;;7.10;54.40;;;;;;5034613;28;20034;-77
2021/03/13 06:02:58;;;;;;;7.22;3.65;;;7.20;54.50;;;;;;5034401;28;20096;-77
2021/03/13 06:05:23;;;;;;;11.13;3.53;;;7.20;54.60;;;;;;5034370;28;20022;-77
2021/03/13 06:07:53;;;;;;;6.47;3.20;;;7.20;54.70;;;;;;5017429;28;20021;-77
2021/03/13 06:10:19;;;;;;;7.75;3.85;;;7.20;54.70;;;;;;5034945;28;20101;-77
2021/03/13 06:12:45;;;;;;;9.65;4.07;;;7.20;54.70;;;;;;5034803;28;20120;-77
2021/03/13 06:15:11;;;;;;;13.80;4.72;;;7.20;55.00;;;;;;5022772;28;20496;-76
2021/03/13 06:17:59;;;;;;;6.45;4.15;;;7.20;55.20;;;;;;5035169;28;20049;-77
2021/03/13 06:20:36;;;;;;;12.35;4.97;;;7.30;55.60;;;;;;5035069;28;20033;-77
2021/03/13 06:23:07;;;;;;;11.18;6.07;;;7.40;55.70;;;;;;5034906;28;20083;-77
2021/03/13 06:25:34;;;;;;;12.15;5.30;;;7.50;55.90;;;;;;5027307;28;20475;-77
2021/03/13 06:28:00;;;;;;;11.05;4.93;;;7.50;55.60;;;;;;5031014;28;20036;-77
2021/03/13 06:30:49;;;;;;;10.52;4.68;;;7.60;55.50;;;;;;5027428;28;20079;-77
2021/03/13 06:33:34;;;;;;;12.10;5.28;;;7.70;55.30;;;;;;5030591;28;20032;-77
2021/03/13 06:36:05;;;;;;;22.00;5.85;;;7.80;55.00;;;;;;5033322;28;20025;-77
2021/03/13 06:38:35;;;;;;;8.75;4.82;;;7.80;54.90;;;;;;5033715;28;20025;-77
2021/03/13 06:41:24;;;;;;;11.13;5.30;;;7.90;55.00;;;;;;5033735;28;20033;-77
2021/03/13 06:43:52;;;;;;;11.20;5.03;;;7.90;55.00;;;;;;5016855;28;20036;-76
2021/03/13 06:46:27;;;;;;;9.52;4.22;;;8.00;55.00;;;;;;5022744;28;20450;-77
2021/03/13 06:48:54;;;;;;;12.73;6.55;;;8.00;55.10;;;;;;5034205;28;20030;-77
2021/03/13 06:51:27;;;;;;;15.00;7.32;;;8.20;55.10;;;;;;5033609;28;20029;-77
2021/03/13 06:54:17;;;;;;;11.15;5.63;;;8.30;55.00;;;;;;5033995;28;20103;-77
2021/03/13 06:56:57;;;;;;;10.00;5.03;;;8.30;54.60;;;;;;5028353;28;20014;-77
2021/03/13 06:59:26;;;;;;;12.88;5.22;;;8.40;54.40;;;;;;5019744;28;20022;-76
2021/03/13 07:02:02;;;;;;;8.50;3.78;;;8.50;54.20;;;;;;5034113;28;20029;-77
2021/03/13 07:04:36;;;;;;;9.23;3.60;;;8.50;54.30;;;;;;5016155;28;20055;-77
2021/03/13 07:07:03;;;;;;;11.60;5.07;;;8.60;54.30;;;;;;5033510;28;20033;-77
2021/03/13 07:09:56;;;;;;;9.23;4.28;;;8.60;54.30;;;;;;5033717;28;20512;-76
2021/03/13 07:12:25;;;;;;;14.13;4.55;;;8.60;54.50;;;;;;5032609;28;20045;-77
2021/03/13 07:14:51;;;;;;;6.30;4.10;;;8.70;54.60;;;;;;5031706;28;20518;-77
2021/03/13 07:17:17;;;;;;;6.25;3.95;;;8.80;54.70;;;;;;5033737;28;20064;-77
2021/03/13 07:19:43;;;;;;;8.10;4.18;;;8.90;54.80;;;;;;5033695;28;20053;-77
2021/03/13 07:22:13;;;;;;;7.72;4.00;;;9.00;54.70;;;;;;5015585;28;20427;-77
2021/03/13 07:24:41;;;;;;;9.73;3.95;;;9.00;54.50;;;;;;5012480;28;20033;-78
2021/03/13 07:27:10;;;;;;;8.65;4.05;;;9.10;54.40;;;;;;5031323;28;20084;-77
2021/03/13 07:29:38;;;;;;;5.85;3.72;;;9.30;54.50;;;;;;5028158;28;20026;-78
2021/03/13 07:32:05;;;;;;;11.73;4.88;;;9.40;54.80;;;;;;5033410;28;20057;-77
2021/03/13 07:34:36;;;;;;;12.70;4.78;;;9.60;54.70;;;;;;5033810;28;20052;-77
2021/03/13 07:37:03;;;;;;;10.43;4.10;;;9.70;54.60;;;;;;5018271;28;20025;-77
2021/03/13 07:39:37;;;;;;;8.57;3.53;;;9.90;54.30;;;;;;5033603;28;20029;-78
2021/03/13 07:42:10;;;;;;;7.78;3.50;;;10.00;53.90;;;;;;5032934;28;20033;-78
2021/03/13 07:44:37;;;;;;;7.55;4.40;;;10.10;53.50;;;;;;5033277;28;20026;-77
2021/03/13 07:47:03;;;;;;;10.35;4.25;;;10.20;53.40;;;;;;5015515;28;20032;-78
2021/03/13 07:49:32;;;;;;;15.52;3.92;;;10.30;53.30;;;;;;5033269;28;20025;-77
2021/03/13 07:51:59;;;;;;;8.93;3.75;;;10.40;53.20;;;;;;5031953;28;20474;-77
2021/03/13 07:54:27;;;;;;;6.95;3.33;;;10.40;53.00;;;;;;5033362;28;20021;-77
2021/03/13 07:56:53;;;;;;;12.07;4.18;;;10.50;53.00;;;;;;5032072;28;20037;-77
2021/03/13 07:59:44;;;;;;;9.88;3.75;;;10.60;53.00;;;;;;5033133;28;20136;-77
2021/03/13 08:02:28;;;;;;;7.25;4.15;;;10.70;52.60;;;;;;5022820;28;20168;-78
2021/03/13 08:05:00;;;;;;;6.65;3.88;;;10.90;52.50;;;;;;5032894;28;20069;-78
2021/03/13 08:07:27;;;;;;;9.07;4.00;;;11.10;52.30;;;;;;5034336;28;20414;-77
2021/03/13 08:09:53;;;;;;;11.43;3.90;;;11.20;52.00;;;;;;5029320;28;20025;-77
2021/03/13 08:12:39;;;;;;;6.72;3.42;;;11.40;51.30;;;;;;5021318;28;20049;-78
2021/03/13 08:15:30;;;;;;;7.05;3.70;;;11.50;50.90;;;;;;5032854;28;20029;-78
2021/03/13 08:17:56;;;;;;;8.10;3.78;;;11.60;50.50;;;;;;5032893;28;20029;-77
2021/03/13 08:20:31;;;;;;;8.23;3.20;;;11.70;50.10;;;;;;5032928;28;20026;-77
2021/03/13 08:23:15;;;;;;;7.85;3.35;;;11.80;49.70;;;;;;5032701;28;20048;-78
2021/03/13 08:25:59;;;;;;;6.00;2.93;;;11.80;49.40;;;;;;5032919;28;20064;-78
2021/03/13 08:28:47;;;;;;;9.80;4.80;;;11.90;49.10;;;;;;5033091;28;20272;-78
2021/03/13 08:31:25;;;;;;;7.82;3.40;;;12.10;49.30;;;;;;5015297;28;20064;-79
2021/03/13 08:33:51;;;;;;;9.68;3.35;;;12.20;49.30;;;;;;5032556;28;20097;-78
2021/03/13 08:36:19;;;;;;;6.20;2.80;;;12.40;48.70;;;;;;5031634;28;20017;-78
2021/03/13 08:38:52;;;;;;;24.27;3.45;;;12.60;48.20;;;;;;5033175;28;20030;-78
2021/03/13 08:41:43;;;;;;;4.40;2.67;;;12.80;48.20;;;;;;5031442;28;20033;-80
2021/03/13 08:44:13;;;;;;;12.95;2.92;;;13.00;47.80;;;;;;5026671;28;20091;-72
2021/03/13 08:46:48;;;;;;;5.43;2.95;;;13.20;47.30;;;;;;5031552;28;20026;-74
2021/03/13 08:49:20;;;;;;;4.15;2.40;;;13.40;45.90;;;;;;5014322;28;20034;-74
2021/03/13 08:51:46;;;;;;;5.82;2.75;;;13.50;46.00;;;;;;5031660;28;20483;-74
2021/03/13 08:54:12;;;;;;;6.43;2.90;;;13.70;46.00;;;;;;5031337;28;20026;-74
2021/03/13 08:56:43;;;;;;;7.03;3.55;;;13.90;45.90;;;;;;5031300;28;20053;-74
2021/03/13 08:59:14;;;;;;;7.82;3.85;;;14.10;45.40;;;;;;5010849;28;20025;-73
2021/03/13 09:01:42;;;;;;;5.32;2.80;;;14.30;45.00;;;;;;5021444;28;20124;-74
2021/03/13 09:04:08;;;;;;;9.45;4.15;;;14.60;44.40;;;;;;4999369;28;20168;-74
2021/03/13 09:06:39;;;;;;;9.18;4.53;;;14.80;44.00;;;;;;5024923;28;20467;-74
2021/03/13 09:09:16;;;;;;;10.65;4.60;;;15.00;43.30;;;;;;5035841;28;20030;-75
2021/03/13 09:11:43;;;;;;;9.13;3.85;;;15.10;42.60;;;;;;5035044;28;20030;-75
2021/03/13 09:14:12;;;;;;;11.10;4.25;;;15.30;42.80;;;;;;5035107;28;20061;-74
2021/03/13 09:16:39;;;;;;;10.20;4.57;;;15.50;42.30;;;;;;5032895;28;20033;-75
2021/03/13 09:19:08;;;;;;;7.95;4.07;;;15.60;41.90;;;;;;5016074;28;20033;-75
2021/03/13 09:21:43;;;;;;;10.23;4.60;;;15.70;40.90;;;;;;5028734;28;20505;-74
2021/03/13 09:24:10;;;;;;;11.38;4.63;;;15.80;40.50;;;;;;5033056;28;20033;-76
2021/03/13 09:26:36;;;;;;;9.35;3.25;;;15.90;40.80;;;;;;5034752;28;20036;-75
2021/03/13 09:29:02;;;;;;;8.13;3.28;;;16.00;40.50;;;;;;5034813;28;20021;-76
2021/03/13 09:31:29;;;;;;;7.97;3.22;;;16.10;40.00;;;;;;5035302;28;20410;-74
2021/03/13 09:34:15;;;;;;;9.85;2.80;;;16.20;40.20;;;;;;5035871;28;20021;-75
2021/03/13 09:36:41;;;;;;;4.68;2.58;;;16.30;39.50;;;;;;5018152;28;20390;-74
2021/03/13 09:39:07;;;;;;;11.82;2.80;;;16.40;39.50;;;;;;5035734;28;20506;-75
2021/03/13 09:41:34;;;;;;;5.22;2.17;;;16.40;38.80;;;;;;5035776;28;20128;-74
2021/03/13 09:43:59;;;;;;;4.65;2.17;;;16.40;39.00;;;;;;5018116;28;20026;-75
2021/03/13 09:46:28;;;;;;;2.92;1.70;;;16.40;38.50;;;;;;5035732;28;20029;-74
2021/03/13 09:48:54;;;;;;;5.63;1.65;;;16.30;38.60;;;;;;5035693;28;20479;-74
2021/03/13 09:51:20;;;;;;;5.78;1.95;;;16.40;38.50;;;;;;5035683;28;20105;-75
2021/03/13 09:53:46;;;;;;;4.30;1.60;;;16.40;38.10;;;;;;5035280;28;20021;-74
2021/03/13 09:56:11;;;;;;;2.28;1.20;;;16.40;37.50;;;;;;5035281;28;20133;-75
2021/03/13 09:58:37;;;;;;;3.17;1.55;;;16.50;37.80;;;;;;5035364;28;20021;-75
2021/03/13 10:01:03;;;;;;;2.38;1.48;;;16.50;38.00;;;;;;5035136;28;20039;-75
2021/03/13 10:03:29;;;;;;;3.72;1.23;;;16.50;37.60;;;;;;5035228;28;20032;-74
2021/03/13 10:05:57;;;;;;;4.10;1.60;;;16.60;37.20;;;;;;5035312;28;20075;-75
2021/03/13 10:08:36;;;;;;;5.05;1.30;;;16.60;36.90;;;;;;5017414;28;20025;-76
2021/03/13 10:11:04;;;;;;;3.67;1.08;;;16.70;37.00;;;;;;5035134;28;20030;-75
2021/03/13 10:13:30;;;;;;;3.10;1.10;;;16.70;36.90;;;;;;5034266;28;20056;-75
2021/03/13 10:15:56;;;;;;;2.58;1.33;;;16.80;36.70;;;;;;5034911;28;20021;-74
2021/03/13 10:18:28;;;;;;;2.00;1.15;;;16.90;36.80;;;;;;5034915;28;20022;-74
2021/03/13 10:20:58;;;;;;;1.55;1.00;;;16.90;36.80;;;;;;5034975;28;20029;-75
2021/03/13 10:23:32;;;;;;;2.22;1.00;;;17.00;36.60;;;;;;5033689;28;20026;-75
2021/03/13 10:26:14;;;;;;;1.98;1.10;;;17.10;36.10;;;;;;5035002;28;20029;-74
2021/03/13 10:28:50;;;;;;;1.77;0.90;;;17.10;35.50;;;;;;5034717;28;20018;-75
2021/03/13 10:31:20;;;;;;;1.80;0.85;;;17.20;35.50;;;;;;5034616;28;20540;-75
2021/03/13 10:33:48;;;;;;;4.10;1.10;;;17.30;35.80;;;;;;5034729;28;20028;-75
2021/03/13 10:36:15;;;;;;;1.70;0.80;;;17.40;34.40;;;;;;5033339;28;20475;-75
2021/03/13 10:38:49;;;;;;;2.58;1.00;;;17.40;33.90;;;;;;5034652;28;20025;-75
2021/03/13 10:41:22;;;;;;;4.47;1.02;;;17.50;34.40;;;;;;5034734;28;20029;-75
2021/03/13 10:43:49;;;;;;;1.50;0.63;;;17.60;33.80;;;;;;5033349;28;20039;-75
2021/03/13 10:46:20;;;;;;;2.70;0.82;;;17.60;32.90;;;;;;5034565;28;20017;-74
2021/03/13 10:48:53;;;;;;;3.05;1.17;;;17.60;32.40;;;;;;5034503;28;20083;-75
2021/03/13 10:51:28;;;;;;;3.13;1.60;;;17.60;32.30;;;;;;5034431;28;20036;-74
2021/03/13 10:53:56;;;;;;;5.07;1.90;;;17.50;32.20;;;;;;5034695;28;20017;-74
2021/03/13 10:56:22;;;;;;;2.67;1.63;;;17.50;32.30;;;;;;5034922;28;20021;-74
2021/03/13 10:58:53;;;;;;;4.03;1.75;;;17.40;32.50;;;;;;5034781;28;20029;-75
2021/03/13 11:01:22;;;;;;;7.78;1.40;;;17.40;32.40;;;;;;5034429;28;20076;-75
2021/03/13 11:03:50;;;;;;;3.83;1.80;;;17.30;31.90;;;;;;5032970;28;20540;-75
2021/03/13 11:06:30;;;;;;;5.03;2.00;;;17.30;31.80;;;;;;5034242;28;20056;-76
2021/03/13 11:08:58;;;;;;;7.68;2.13;;;17.30;32.50;;;;;;5034167;28;20037;-75
2021/03/13 11:11:25;;;;;;;5.45;2.20;;;17.40;33.10;;;;;;5032654;28;20449;-73
2021/03/13 11:13:51;;;;;;;5.53;2.40;;;17.40;32.70;;;;;;5034046;28;20024;-74
2021/03/13 11:16:17;;;;;;;2.63;1.70;;;17.40;33.10;;;;;;5032862;28;20025;-75
2021/03/13 11:18:43;;;;;;;4.72;1.48;;;17.60;32.70;;;;;;5033806;28;20022;-75
2021/03/13 11:21:09;;;;;;;4.38;1.40;;;17.60;32.50;;;;;;5033992;28;20557;-76
2021/03/13 11:23:35;;;;;;;2.28;1.20;;;17.70;32.00;;;;;;5031710;28;20067;-74
2021/03/13 11:26:01;;;;;;;3.47;1.00;;;17.80;32.60;;;;;;5033122;28;20025;-75
2021/03/13 11:28:26;;;;;;;1.35;0.82;;;17.90;31.80;;;;;;5014830;28;20033;-74
2021/03/13 11:30:52;;;;;;;8.68;0.95;;;18.10;32.10;;;;;;5033205;28;20029;-74
2021/03/13 11:33:18;;;;;;;1.90;0.77;;;18.20;31.70;;;;;;5033144;28;20030;-75
2021/03/13 11:35:44;;;;;;;2.78;1.40;;;18.30;31.90;;;;;;5033664;28;20376;-74
2021/03/13 11:38:10;;;;;;;3.10;1.38;;;18.40;30.60;;;;;;5033492;28;20021;-75
2021/03/13 11:40:36;;;;;;;5.65;1.88;;;18.50;31.10;;;;;;5033351;28;20463;-76
2021/03/13 11:43:02;;;;;;;3.42;1.40;;;18.60;31.20;;;;;;5015897;28;20044;-76
2021/03/13 11:45:29;;;;;;;3.88;1.77;;;18.70;31.30;;;;;;5033626;28;20036;-75
2021/03/13 11:47:56;;;;;;;3.33;1.17;;;18.80;31.20;;;;;;5015664;28;20105;-76
2021/03/13 11:50:27;;;;;;;1.65;1.10;;;18.90;30.80;;;;;;5015760;28;20529;-75
2021/03/13 11:52:55;;;;;;;2.45;1.00;;;19.00;30.30;;;;;;5033244;28;20391;-76
2021/03/13 11:55:21;;;;;;;4.10;1.50;;;19.10;29.80;;;;;;5033462;28;20021;-75
2021/03/13 11:57:47;;;;;;;3.65;1.73;;;19.10;30.20;;;;;;5033153;28;20083;-76
2021/03/13 12:00:14;;;;;;;1.38;1.00;;;19.20;29.70;;;;;;5032979;28;20096;-75
2021/03/13 12:02:40;;;;;;;6.47;1.30;;;19.10;29.30;;;;;;5033219;28;20056;-75
2021/03/13 12:05:07;;;;;;;3.70;1.40;;;19.00;28.50;;;;;;5033144;28;20022;-75
2021/03/13 12:07:34;;;;;;;2.58;1.33;;;18.90;28.90;;;;;;5031762;28;20092;-77
2021/03/13 12:09:59;;;;;;;8.10;2.42;;;18.80;29.00;;;;;;5033189;28;20032;-74
2021/03/13 12:12:25;;;;;;;5.22;1.50;;;18.70;28.50;;;;;;5033245;28;20041;-75
2021/03/13 12:14:51;;;;;;;3.53;1.80;;;18.50;28.60;;;;;;5031765;28;20026;-76
2021/03/13 12:17:17;;;;;;;3.80;1.60;;;18.50;29.10;;;;;;5033034;28;20036;-75
2021/03/13 12:19:46;;;;;;;4.03;1.70;;;18.40;29.60;;;;;;5033243;28;20017;-75
2021/03/13 12:22:12;;;;;;;3.55;1.83;;;18.30;29.60;;;;;;5032909;28;20156;-74
2021/03/13 12:24:38;;;;;;;3.17;1.45;;;18.30;29.40;;;;;;5032961;28;20071;-74
2021/03/13 12:27:05;;;;;;;7.53;1.90;;;18.20;29.00;;;;;;5015305;28;20029;-74
2021/03/13 12:29:31;;;;;;;2.95;1.60;;;18.20;28.90;;;;;;5032869;28;20053;-76
2021/03/13 12:31:56;;;;;;;3.70;1.70;;;18.20;29.60;;;;;;5032768;28;20482;-76
2021/03/13 12:34:22;;;;;;;4.50;1.90;;;18.20;29.90;;;;;;5015186;28;20048;-74
2021/03/13 12:36:48;;;;;;;3.25;1.55;;;18.10;29.60;;;;;;5034788;28;20029;-75
2021/03/13 12:39:14;;;;;;;6.45;2.22;;;18.20;29.60;;;;;;5036837;28;20479;-75
2021/03/13 12:41:40;;;;;;;3.40;1.70;;;18.20;29.90;;;;;;5036918;28;20459;-75
2021/03/13 12:44:06;;;;;;;5.38;1.80;;;18.20;29.80;;;;;;5035391;28;20033;-75
2021/03/13 12:46:31;;;;;;;2.67;1.35;;;18.20;29.10;;;;;;5036698;28;20029;-74
2021/03/13 12:48:57;;;;;;;2.92;1.40;;;18.20;29.30;;;;;;5033160;28;20030;-75
2021/03/13 12:51:24;;;;;;;3.80;1.70;;;18.20;28.50;;;;;;5035969;28;20055;-76
2021/03/13 12:53:52;;;;;;;6.95;1.77;;;18.20;29.00;;;;;;5017685;28;20100;-74
2021/03/13 12:56:18;;;;;;;5.63;2.20;;;18.30;29.00;;;;;;5034932;28;20025;-75
2021/03/13 12:58:44;;;;;;;4.10;2.10;;;18.30;29.00;;;;;;5036159;28;20040;-75
2021/03/13 13:01:10;;;;;;;7.50;2.28;;;18.30;28.90;;;;;;5036725;28;20053;-75